Time;durP1;ratioP1;P1;durP2;ratioP2;P2;SDS_P1;SDS_P2;PMS_P1;PMS_P2;Temp;Humidity;BMP_temperature;BMP_pressure;BME280_temperature;BME280_humidity;BME280_pressure;Samples;Min_cycle;Max_cycle;Signal;HPM_P1;HPM_P2
2021/01/03 00:01:26;;;;;;;16.10;10.33;;;;;;;1.77;81.75;100545.08;1716390;82;21192;-62
2021/01/03 00:03:53;;;;;;;12.77;9.60;;;;;;;1.74;81.68;100541.08;1714450;82;21170;-62
2021/01/03 00:06:21;;;;;;;17.17;10.13;;;;;;;1.71;81.65;100543.28;1710692;82;22836;-63
2021/01/03 00:08:50;;;;;;;14.57;10.37;;;;;;;1.68;81.62;100547.28;1715311;82;21194;-62
2021/01/03 00:11:17;;;;;;;19.10;9.93;;;;;;;1.65;81.58;100550.37;1709620;82;21233;-62
2021/01/03 00:13:44;;;;;;;14.57;8.33;;;;;;;1.61;81.57;100557.46;1714902;82;21186;-62
2021/01/03 00:16:12;;;;;;;21.37;9.47;;;;;;;1.60;81.54;100551.70;1712744;82;21201;-61
2021/01/03 00:18:39;;;;;;;13.13;7.37;;;;;;;1.60;81.56;100546.84;1712934;82;21635;-61
2021/01/03 00:21:06;;;;;;;10.97;7.57;;;;;;;1.60;81.57;100556.13;1711358;82;21194;-61
2021/01/03 00:23:34;;;;;;;13.70;7.37;;;;;;;1.60;81.63;100551.70;1714744;82;21218;-62
2021/01/03 00:26:01;;;;;;;14.33;8.13;;;;;;;1.63;81.60;100557.44;1712577;82;21659;-61
2021/01/03 00:28:28;;;;;;;11.03;7.43;;;;;;;1.61;81.58;100553.48;1717287;82;21630;-61
2021/01/03 00:30:55;;;;;;;14.03;9.70;;;;;;;1.60;81.59;100554.36;1709160;82;21661;-62
2021/01/03 00:33:23;;;;;;;14.60;9.20;;;;;;;1.58;81.57;100554.80;1714313;82;21603;-62
2021/01/03 00:35:50;;;;;;;18.60;11.17;;;;;;;1.56;81.55;100551.69;1714024;82;21173;-62
2021/01/03 00:38:17;;;;;;;14.83;9.00;;;;;;;1.52;81.55;100557.45;1716517;82;21174;-61
2021/01/03 00:40:46;;;;;;;14.63;7.83;;;;;;;1.49;81.50;100547.70;1715835;82;21173;-62
2021/01/03 00:43:14;;;;;;;13.40;8.17;;;;;;;1.48;81.47;100553.90;1716216;82;21216;-62
2021/01/03 00:45:41;;;;;;;13.73;8.77;;;;;;;1.48;81.49;100547.27;1689591;82;21608;-62
2021/01/03 00:48:09;;;;;;;13.43;7.73;;;;;;;1.47;81.51;100541.51;1712168;82;21238;-62
2021/01/03 00:50:37;;;;;;;11.73;7.33;;;;;;;1.47;81.50;100546.81;1719244;82;21154;-62
2021/01/03 00:53:04;;;;;;;14.27;8.97;;;;;;;1.46;81.51;100548.14;1701296;82;21203;-62
2021/01/03 00:55:31;;;;;;;15.70;9.33;;;;;;;1.45;81.45;100547.69;1697669;83;21312;-62
2021/01/03 00:57:59;;;;;;;11.00;7.80;;;;;;;1.42;81.41;100551.69;1696038;83;21223;-62
2021/01/03 01:00:30;;;;;;;14.63;9.63;;;;;;;1.38;81.37;100547.24;1692649;83;21223;-62
2021/01/03 01:02:58;;;;;;;13.47;7.67;;;;;;;1.34;81.36;100548.14;1668619;83;21504;-62
2021/01/03 01:05:25;;;;;;;16.43;9.77;;;;;;;1.34;81.34;100546.38;1690553;83;21262;-62
2021/01/03 01:07:52;;;;;;;11.60;7.73;;;;;;;1.33;81.33;100545.92;1692967;83;21235;-62
2021/01/03 01:10:23;;;;;;;13.13;7.23;;;;;;;1.33;81.35;100545.03;1691674;83;22554;-62
2021/01/03 01:12:51;;;;;;;13.43;8.40;;;;;;;1.32;81.43;100543.27;1696265;83;21207;-62
2021/01/03 01:15:20;;;;;;;11.77;8.03;;;;;;;1.32;81.42;100546.80;1695841;83;21900;-62
2021/01/03 01:17:49;;;;;;;19.83;9.17;;;;;;;1.30;81.40;100548.56;1694533;83;21095;-62
2021/01/03 01:20:19;;;;;;;12.30;8.50;;;;;;;1.29;81.41;100547.23;1699673;83;21372;-62
2021/01/03 01:22:46;;;;;;;13.57;8.70;;;;;;;1.26;81.41;100543.27;1697258;83;21451;-62
2021/01/03 01:25:14;;;;;;;14.33;9.90;;;;;;;1.23;81.39;100545.89;1693853;83;21195;-62
2021/01/03 01:27:41;;;;;;;19.53;10.07;;;;;;;1.20;81.34;100549.42;1695856;83;22061;-63
2021/01/03 01:30:10;;;;;;;23.90;11.77;;;;;;;1.21;81.28;100545.00;1696860;83;21187;-62
2021/01/03 01:32:38;;;;;;;22.30;12.23;;;;;;;1.20;81.22;100548.09;1692693;83;21378;-62
2021/01/03 01:35:06;;;;;;;17.07;10.37;;;;;;;1.19;81.13;100547.67;1695513;83;21545;-62
2021/01/03 01:37:33;;;;;;;16.17;9.13;;;;;;;1.19;81.08;100552.09;1699742;83;21344;-62
2021/01/03 01:40:01;;;;;;;17.37;10.17;;;;;;;1.16;80.99;100547.66;1697706;83;21135;-62
2021/01/03 01:42:29;;;;;;;15.60;9.23;;;;;;;1.12;80.90;100549.84;1695161;83;21120;-62
2021/01/03 01:44:56;;;;;;;15.90;8.73;;;;;;;1.07;80.90;100546.30;1696167;83;22865;-62
2021/01/03 01:47:32;;;;;;;14.00;8.83;;;;;;;1.04;80.90;100549.83;1700977;83;21151;-62
2021/01/03 01:50:01;;;;;;;13.20;7.37;;;;;;;1.02;80.92;100558.20;1613644;86;21209;-62
2021/01/03 01:52:32;;;;;;;15.13;7.67;;;;;;;1.01;81.02;100555.14;1698169;83;21213;-62
2021/01/03 01:55:04;;;;;;;10.57;6.77;;;;;;;1.04;81.23;100567.50;1696764;83;21120;-62
2021/01/03 01:57:45;;;;;;;9.97;7.07;;;;;;;1.10;81.45;100563.56;1686758;83;21595;-62
2021/01/03 02:00:22;;;;;;;11.23;7.80;;;;;;;1.15;81.65;100568.42;1685822;83;21240;-62
2021/01/03 02:03:24;;;;;;;9.87;6.60;;;;;;;1.22;81.87;100560.92;1690691;83;21141;-62
2021/01/03 02:06:11;;;;;;;15.73;8.50;;;;;;;1.27;82.11;100564.48;1687322;83;21149;-62
2021/01/03 02:08:56;;;;;;;13.50;8.30;;;;;;;1.32;82.24;100572.00;1687944;83;21172;-62
2021/01/03 02:11:25;;;;;;;18.42;9.58;;;;;;;1.35;82.45;100564.50;1691416;83;21513;-62
2021/01/03 02:13:55;;;;;;;14.33;8.20;;;;;;;1.41;82.60;100565.83;1689139;83;21493;-62
2021/01/03 02:16:25;;;;;;;13.53;7.37;;;;;;;1.46;82.72;100565.38;1682561;83;21147;-62
2021/01/03 02:18:52;;;;;;;14.73;9.17;;;;;;;1.50;82.84;100568.50;1665775;83;21428;-62
2021/01/03 02:21:52;;;;;;;17.23;9.03;;;;;;;1.53;82.88;100568.52;1669926;83;21200;-62
2021/01/03 02:24:28;;;;;;;15.07;9.67;;;;;;;1.57;82.97;100564.96;1680988;83;21409;-57
2021/01/03 02:27:09;;;;;;;16.00;9.80;;;;;;;1.60;83.00;100560.11;1674953;83;21203;-58
2021/01/03 02:29:37;;;;;;;18.57;11.00;;;;;;;1.63;83.06;100564.07;1632880;85;21223;-59
2021/01/03 02:32:05;;;;;;;18.43;11.47;;;;;;;1.65;83.03;100566.29;1715192;81;21202;-60
2021/01/03 02:34:36;;;;;;;15.30;8.90;;;;;;;1.66;83.00;100567.62;1663193;83;21231;-59
2021/01/03 02:37:08;;;;;;;17.53;11.07;;;;;;;1.69;82.94;100572.95;1715278;81;23780;-58
2021/01/03 02:39:56;;;;;;;18.53;10.97;;;;;;;1.72;82.96;100572.04;1715794;81;21580;-58
2021/01/03 02:42:30;;;;;;;17.73;10.17;;;;;;;1.75;82.96;100572.05;1719583;81;21550;-59
2021/01/03 02:44:58;;;;;;;13.33;8.97;;;;;;;1.77;82.96;100570.30;1717485;81;21106;-60
2021/01/03 02:47:30;;;;;;;15.47;10.80;;;;;;;1.78;82.95;100568.97;1718999;81;21199;-58
2021/01/03 02:49:57;;;;;;;16.20;10.67;;;;;;;1.79;82.89;100571.16;1715573;81;21181;-59
2021/01/03 02:52:31;;;;;;;16.30;10.37;;;;;;;1.78;82.85;100578.26;1715310;81;21643;-58
2021/01/03 02:54:58;;;;;;;12.20;8.33;;;;;;;1.77;82.77;100579.14;1680809;83;21690;-60
2021/01/03 02:57:26;;;;;;;10.90;7.67;;;;;;;1.77;82.73;100575.59;1718113;81;21183;-59
2021/01/03 02:59:54;;;;;;;12.77;8.73;;;;;;;1.76;82.75;100572.50;1714635;81;21198;-59
2021/01/03 03:02:21;;;;;;;13.03;9.40;;;;;;;1.76;82.78;100577.37;1717621;81;21294;-58
2021/01/03 03:04:50;;;;;;;12.97;8.73;;;;;;;1.75;82.74;100577.36;1715504;81;21195;-58
2021/01/03 03:07:17;;;;;;;15.17;10.27;;;;;;;1.74;82.81;100569.84;1717585;81;22046;-59
2021/01/03 03:09:44;;;;;;;13.37;9.23;;;;;;;1.74;82.88;100574.27;1717083;81;21265;-59
2021/01/03 03:12:11;;;;;;;14.27;8.97;;;;;;;1.72;82.82;100566.29;1715168;81;21211;-59
2021/01/03 03:14:38;;;;;;;10.80;7.43;;;;;;;1.70;82.81;100572.51;1717479;81;21266;-59
2021/01/03 03:17:06;;;;;;;9.97;7.87;;;;;;;1.69;82.76;100570.30;1716754;81;21518;-59
2021/01/03 03:19:34;;;;;;;11.70;7.67;;;;;;;1.69;82.73;100570.30;1721103;81;21193;-58
2021/01/03 03:22:02;;;;;;;11.17;8.07;;;;;;;1.70;82.76;100567.20;1713824;81;21237;-59
2021/01/03 03:24:29;;;;;;;13.83;9.43;;;;;;;1.71;82.72;100565.84;1715089;81;21187;-60
2021/01/03 03:27:01;;;;;;;8.20;6.67;;;;;;;1.70;82.79;100563.22;1715907;81;21132;-60
2021/01/03 03:29:28;;;;;;;6.83;4.83;;;;;;;1.71;82.79;100568.50;1716230;81;21199;-59
2021/01/03 03:31:55;;;;;;;8.93;6.53;;;;;;;1.70;82.73;100569.85;1715390;81;21588;-59
2021/01/03 03:34:24;;;;;;;8.90;6.40;;;;;;;1.66;82.70;100574.27;1717349;81;21651;-59
2021/01/03 03:36:53;;;;;;;7.73;5.30;;;;;;;1.66;82.69;100568.06;1722855;81;21154;-58
2021/01/03 03:39:20;;;;;;;6.37;5.00;;;;;;;1.64;82.67;100572.04;1718806;81;21388;-58
2021/01/03 03:41:48;;;;;;;9.00;6.30;;;;;;;1.65;82.69;100571.59;1716276;81;21232;-58
2021/01/03 03:44:15;;;;;;;7.80;5.93;;;;;;;1.66;82.72;100574.27;1717066;81;21207;-59
2021/01/03 03:46:42;;;;;;;9.73;6.63;;;;;;;1.66;82.76;100568.95;1716599;81;21316;-58
2021/01/03 03:49:09;;;;;;;11.23;8.27;;;;;;;1.67;82.77;100570.73;1672723;82;21234;-58
2021/01/03 03:51:37;;;;;;;15.27;9.37;;;;;;;1.67;82.78;100583.11;1714431;81;21215;-58
2021/01/03 03:54:04;;;;;;;12.97;9.20;;;;;;;1.63;82.75;100571.59;1721900;81;21638;-58
2021/01/03 03:56:31;;;;;;;11.83;8.00;;;;;;;1.63;82.80;100573.36;1721101;81;21587;-58
2021/01/03 03:58:58;;;;;;;6.43;4.87;;;;;;;1.65;82.82;100580.89;1719736;81;21989;-59
2021/01/03 04:01:48;;;;;;;6.03;4.63;;;;;;;1.64;82.81;100577.78;1718797;81;21203;-59
2021/01/03 04:04:16;;;;;;;9.73;6.47;;;;;;;1.63;82.77;100574.69;1641142;85;21396;-58
2021/01/03 04:06:44;;;;;;;8.27;5.60;;;;;;;1.60;82.78;100583.99;1641891;85;21391;-58
2021/01/03 04:09:11;;;;;;;7.83;6.60;;;;;;;1.58;82.85;100588.41;1637819;85;21203;-60
2021/01/03 04:11:41;;;;;;;8.50;6.03;;;;;;;1.56;82.92;100585.74;1643610;85;21146;-59
2021/01/03 04:14:10;;;;;;;7.33;5.17;;;;;;;1.56;82.92;100587.51;1645769;85;21192;-59
2021/01/03 04:16:53;;;;;;;8.47;4.77;;;;;;;1.57;82.91;100578.67;1642328;85;21401;-59
2021/01/03 04:19:20;;;;;;;8.53;5.87;;;;;;;1.58;82.89;100586.64;1641012;85;21992;-59
2021/01/03 04:22:04;;;;;;;5.27;4.23;;;;;;;1.58;82.94;100591.94;1604741;87;22211;-58
2021/01/03 04:24:31;;;;;;;7.80;5.80;;;;;;;1.61;82.98;100585.77;1644210;85;21235;-59
2021/01/03 04:27:05;;;;;;;8.70;6.50;;;;;;;1.63;83.03;100601.22;1641739;85;21564;-59
2021/01/03 04:29:33;;;;;;;7.45;4.75;;;;;;;1.63;83.03;100598.56;1640646;85;22273;-60
2021/01/03 04:32:06;;;;;;;7.17;4.70;;;;;;;1.62;83.04;100590.16;1643875;85;21171;-59
2021/01/03 04:34:34;;;;;;;7.37;5.37;;;;;;;1.60;83.08;100595.49;1646002;85;21629;-58
2021/01/03 04:37:01;;;;;;;8.80;5.80;;;;;;;1.59;83.05;100595.48;1642783;85;21279;-60
2021/01/03 04:39:29;;;;;;;7.93;6.17;;;;;;;1.60;83.09;100595.94;1645092;85;21701;-61
2021/01/03 04:42:10;;;;;;;7.77;5.27;;;;;;;1.61;83.10;100586.66;1651537;84;21189;-60
2021/01/03 04:44:45;;;;;;;8.40;5.00;;;;;;;1.62;83.14;100584.41;1638036;84;21519;-59
2021/01/03 04:47:40;;;;;;;6.83;5.73;;;;;;;1.63;83.16;100585.30;1664498;84;21155;-61
2021/01/03 04:50:22;;;;;;;8.98;6.42;;;;;;;1.62;83.21;100584.85;1642958;84;21662;-59
2021/01/03 04:53:19;;;;;;;7.40;5.17;;;;;;;1.60;83.24;100583.55;1663864;84;21204;-60
2021/01/03 04:55:51;;;;;;;6.07;4.07;;;;;;;1.58;83.24;100585.31;1662158;84;21171;-62
2021/01/03 04:58:46;;;;;;;6.30;4.20;;;;;;;1.58;83.26;100581.33;1661402;84;21639;-60
2021/01/03 05:01:40;;;;;;;5.47;4.20;;;;;;;1.57;83.31;100586.19;1665782;84;21514;-58
2021/01/03 05:05:00;;;;;;;5.58;3.75;;;;;;;1.57;83.39;100587.95;1663069;84;22041;-59
2021/01/03 05:07:32;;;;;;;5.37;3.77;;;;;;;1.57;83.44;100592.82;1663122;84;21520;-60
2021/01/03 05:10:16;;;;;;;4.70;3.63;;;;;;;1.59;83.49;100603.00;1663600;84;21901;-61
2021/01/03 05:13:11;;;;;;;7.23;4.07;;;;;;;1.62;83.52;100594.14;1663163;84;21524;-60
2021/01/03 05:15:38;;;;;;;4.15;3.50;;;;;;;1.62;83.51;100602.98;1666467;84;21154;-61
2021/01/03 05:18:06;;;;;;;8.40;4.33;;;;;;;1.62;83.51;100610.06;1665989;84;21164;-62
2021/01/03 05:20:34;;;;;;;4.37;3.43;;;;;;;1.60;83.50;100610.53;1664290;84;21290;-65
2021/01/03 05:23:20;;;;;;;5.10;3.60;;;;;;;1.61;83.53;100600.36;1666194;84;21469;-62
2021/01/03 05:25:48;;;;;;;4.67;2.83;;;;;;;1.61;83.53;100605.23;1660328;84;21775;-62
2021/01/03 05:28:32;;;;;;;4.53;3.43;;;;;;;1.60;83.62;100614.51;1663697;84;21743;-61
2021/01/03 05:31:16;;;;;;;6.28;4.28;;;;;;;1.60;83.67;100621.14;1665900;84;21528;-62
2021/01/03 05:34:08;;;;;;;4.60;3.37;;;;;;;1.59;83.68;100609.64;1667271;84;21481;-64
2021/01/03 05:36:44;;;;;;;5.93;3.77;;;;;;;1.58;83.71;100614.94;1664129;84;22061;-61
2021/01/03 05:39:26;;;;;;;5.13;3.17;;;;;;;1.55;83.77;100610.50;1663637;84;21549;-61
2021/01/03 05:42:04;;;;;;;4.87;3.40;;;;;;;1.55;83.77;100610.94;1666919;84;21155;-60
2021/01/03 05:44:37;;;;;;;6.37;3.30;;;;;;;1.56;83.83;100610.95;1666888;84;21203;-62
2021/01/03 05:47:21;;;;;;;4.90;3.53;;;;;;;1.57;83.83;100602.11;1640048;84;21155;-64
2021/01/03 05:50:10;;;;;;;6.90;3.92;;;;;;;1.59;83.90;100609.64;1666620;84;21536;-64
2021/01/03 05:52:49;;;;;;;5.30;2.87;;;;;;;1.61;83.92;100614.52;1663278;84;21238;-64
2021/01/03 05:55:26;;;;;;;4.57;3.70;;;;;;;1.62;83.91;100617.58;1665318;84;21269;-62
2021/01/03 05:58:20;;;;;;;5.23;3.10;;;;;;;1.60;83.89;100614.06;1664778;84;21231;-63
2021/01/03 06:00:47;;;;;;;5.37;3.00;;;;;;;1.61;83.93;100613.19;1663636;84;21172;-64
2021/01/03 06:03:30;;;;;;;4.80;3.67;;;;;;;1.64;83.90;100613.61;1660173;84;21979;-62
2021/01/03 06:06:13;;;;;;;3.87;2.40;;;;;;;1.63;83.95;100608.74;1663443;84;21605;-65
2021/01/03 06:08:40;;;;;;;4.20;2.50;;;;;;;1.65;83.96;100612.73;1656035;84;21163;-62
2021/01/03 06:11:15;;;;;;;4.53;3.20;;;;;;;1.67;84.00;100612.30;1658089;84;21148;-67
2021/01/03 06:13:53;;;;;;;4.70;3.37;;;;;;;1.70;84.04;100610.52;1862849;75;26592;-62
2021/01/03 06:16:29;;;;;;;3.83;2.00;;;;;;;1.66;84.02;100622.47;1843919;75;20972;-62
2021/01/03 06:19:18;;;;;;;3.90;2.57;;;;;;;1.66;84.03;100609.20;1842659;77;21380;-61
2021/01/03 06:21:45;;;;;;;5.27;2.67;;;;;;;1.67;84.00;100609.20;1840594;77;21404;-62
2021/01/03 06:24:26;;;;;;;4.57;2.77;;;;;;;1.69;84.05;100620.72;1837651;77;21186;-62
2021/01/03 06:26:56;;;;;;;3.47;2.43;;;;;;;1.73;84.08;100608.32;1797579;78;22252;-62
2021/01/03 06:29:41;;;;;;;5.40;3.10;;;;;;;1.77;84.09;100611.44;1774389;78;20998;-62
2021/01/03 06:32:47;;;;;;;5.35;3.33;;;;;;;1.80;84.11;100614.07;1771953;78;21386;-62
2021/01/03 06:35:44;;;;;;;3.80;2.80;;;;;;;1.81;84.07;100614.08;1782143;78;21094;-62
2021/01/03 06:38:51;;;;;;;4.67;2.97;;;;;;;1.82;84.02;100614.96;1776740;78;21539;-62
2021/01/03 06:41:27;;;;;;;4.07;2.87;;;;;;;1.81;83.96;100619.83;1793559;78;21203;-62
2021/01/03 06:44:20;;;;;;;4.33;2.70;;;;;;;1.82;83.99;100617.18;1753805;79;21244;-62
2021/01/03 06:47:22;;;;;;;4.37;2.53;;;;;;;1.81;84.07;100623.37;1757963;79;21501;-61
2021/01/03 06:49:58;;;;;;;4.30;2.80;;;;;;;1.82;84.11;100615.85;1757962;79;21233;-62
2021/01/03 06:53:05;;;;;;;4.60;3.10;;;;;;;1.86;84.11;100608.79;1754640;79;21127;-62
2021/01/03 06:56:13;;;;;;;4.83;2.73;;;;;;;1.87;84.14;100607.44;1766858;79;22358;-63
2021/01/03 06:59:07;;;;;;;5.27;2.90;;;;;;;1.87;84.17;100607.44;1752654;79;21218;-63
2021/01/03 07:01:38;;;;;;;3.80;2.47;;;;;;;1.89;84.14;100607.00;1756552;80;21559;-63
2021/01/03 07:04:28;;;;;;;5.40;2.43;;;;;;;1.93;84.14;100606.58;1759300;79;21182;-63
2021/01/03 07:06:57;;;;;;;4.80;2.97;;;;;;;1.93;84.20;100608.34;1800714;77;21062;-63
2021/01/03 07:09:24;;;;;;;3.60;2.47;;;;;;;1.97;84.25;100616.30;1794982;77;21068;-63
2021/01/03 07:11:58;;;;;;;4.93;3.13;;;;;;;2.00;84.27;100614.98;1794880;77;21636;-63
2021/01/03 07:14:40;;;;;;;4.37;3.22;;;;;;;2.02;84.26;100607.91;1768268;77;21147;-63
2021/01/03 07:17:15;;;;;;;4.33;3.03;;;;;;;2.02;84.25;100607.91;1796184;77;21107;-63
2021/01/03 07:19:49;;;;;;;;;;;;;;;2.03;84.23;100607.47;1781646;77;21511;-63
2021/01/03 07:22:37;;;;;;;3.83;2.70;;;;;;;2.08;84.24;100602.58;1866273;75;26633;-62
2021/01/03 07:25:24;;;;;;;6.10;3.27;;;;;;;2.05;84.23;100603.01;1839026;77;21471;-60
2021/01/03 07:28:15;;;;;;;5.70;3.17;;;;;;;2.07;84.27;100606.12;1782953;77;21517;-61
2021/01/03 07:31:06;;;;;;;5.80;3.37;;;;;;;2.08;84.28;100603.91;1844040;75;20968;-63
2021/01/03 07:33:48;;;;;;;4.37;2.97;;;;;;;2.10;84.31;100603.47;1841502;76;20976;-65
2021/01/03 07:36:21;;;;;;;6.53;3.80;;;;;;;2.13;84.37;100595.48;1804597;77;21139;-61
2021/01/03 07:39:13;;;;;;;6.47;4.13;;;;;;;2.14;84.35;100587.08;1778595;78;21474;-63
2021/01/03 07:41:41;;;;;;;7.37;3.90;;;;;;;2.12;84.38;100593.74;1789515;77;21347;-63
2021/01/03 07:44:15;;;;;;;4.67;3.23;;;;;;;2.12;84.40;100599.49;1754925;81;21027;-63
2021/01/03 07:46:52;;;;;;;;;;;;;;;2.14;84.45;100602.56;1755547;80;20981;-62
2021/01/03 07:49:38;;;;;;;3.17;2.83;;;;;;;2.17;84.47;100603.02;1748400;80;20345;-64
2021/01/03 07:52:24;;;;;;;4.13;2.67;;;;;;;2.19;84.56;100602.58;1748884;81;21132;-64
2021/01/03 07:54:55;;;;;;;5.13;3.03;;;;;;;2.21;84.55;100588.39;1755686;81;21287;-63
2021/01/03 07:57:27;;;;;;;4.03;3.07;;;;;;;2.24;84.60;100589.73;1749410;80;22652;-63
2021/01/03 07:59:54;;;;;;;5.80;3.20;;;;;;;2.27;84.57;100588.41;1742444;80;21109;-64
2021/01/03 08:02:30;;;;;;;3.93;2.47;;;;;;;2.28;84.55;100588.85;1748548;81;21182;-63
2021/01/03 08:05:01;;;;;;;3.97;2.80;;;;;;;2.32;84.49;100596.80;1750070;80;21088;-64
2021/01/03 08:09:33;;;;;;;3.67;2.50;;;;;;;2.41;84.56;100595.02;1796171;78;26768;-63
2021/01/03 08:12:15;;;;;;;3.93;2.23;;;;;;;2.39;84.54;100603.86;1773331;80;21194;-63
2021/01/03 08:14:42;;;;;;;3.40;2.20;;;;;;;2.43;84.56;100610.52;1770438;80;21628;-63
2021/01/03 08:17:21;;;;;;;4.80;2.43;;;;;;;2.46;84.49;100610.97;1771481;78;21206;-63
2021/01/03 08:19:50;;;;;;;4.90;3.00;;;;;;;2.45;84.49;100599.45;1710999;81;21211;-61
2021/01/03 08:22:25;;;;;;;4.57;3.03;;;;;;;2.45;84.44;100602.10;1711280;81;21633;-61
2021/01/03 08:24:59;;;;;;;2.73;2.53;;;;;;;2.47;84.45;100608.72;1742711;80;20977;-62
2021/01/03 08:27:45;;;;;;;3.75;2.85;;;;;;;2.50;84.46;100610.05;1739675;80;21205;-62
2021/01/03 08:30:18;;;;;;;3.57;1.97;;;;;;;2.53;84.47;100610.94;1741784;81;21064;-62
2021/01/03 08:32:45;;;;;;;3.00;1.90;;;;;;;2.56;84.44;100612.69;1742854;81;21514;-61
2021/01/03 08:35:27;;;;;;;3.17;2.10;;;;;;;2.58;84.40;100622.88;1711200;81;21203;-62
2021/01/03 08:40:48;;;;;;;4.87;3.33;;;;;;;2.63;84.32;100605.17;1859053;75;27194;-59
2021/01/03 08:43:23;;;;;;;4.93;3.10;;;;;;;2.60;84.21;100607.82;1831269;77;20998;-62
2021/01/03 08:45:50;;;;;;;3.83;2.50;;;;;;;2.61;84.17;100608.27;1836821;77;21490;-62
2021/01/03 08:48:24;;;;;;;4.03;2.40;;;;;;;2.63;84.09;100606.05;1827910;77;21201;-60
2021/01/03 08:51:08;;;;;;;3.93;2.53;;;;;;;2.65;83.98;100605.58;1824254;77;21178;-59
2021/01/03 08:53:35;;;;;;;5.27;3.23;;;;;;;2.65;84.00;100608.23;1825641;75;21214;-61
2021/01/03 08:56:10;;;;;;;3.07;2.27;;;;;;;2.68;83.93;100612.67;1832182;77;21142;-60
2021/01/03 08:58:38;;;;;;;6.03;3.90;;;;;;;2.70;84.00;100620.65;1836278;77;22445;-59
2021/01/03 09:01:28;;;;;;;5.90;3.60;;;;;;;2.69;83.83;100617.10;1793331;78;21462;-60
2021/01/03 09:04:00;;;;;;;4.67;3.27;;;;;;;2.69;83.71;100616.22;1835151;75;21566;-60
2021/01/03 09:06:29;;;;;;;4.47;2.87;;;;;;;2.70;83.71;100605.59;1833506;77;21545;-60
2021/01/03 09:08:56;;;;;;;3.40;3.07;;;;;;;2.70;83.51;100616.66;1759143;79;21189;-61
2021/01/03 09:11:28;;;;;;;4.53;2.70;;;;;;;2.68;83.53;100624.63;1824993;76;21433;-60
2021/01/03 09:14:22;;;;;;;4.97;2.80;;;;;;;2.69;83.49;100620.20;1827332;77;21227;-61
2021/01/03 09:17:21;;;;;;;5.03;3.17;;;;;;;2.68;83.40;100631.28;1838035;77;21182;-61
2021/01/03 09:20:15;;;;;;;4.07;2.87;;;;;;;2.69;83.34;100631.72;1832168;77;21178;-60
2021/01/03 09:22:51;;;;;;;5.00;2.93;;;;;;;2.68;83.29;100629.95;1829519;77;21158;-60
2021/01/03 09:25:37;;;;;;;3.17;2.47;;;;;;;2.65;83.14;100628.17;1831609;77;21770;-58
2021/01/03 09:28:20;;;;;;;3.43;2.13;;;;;;;2.64;83.08;100622.85;1831501;77;21198;-60
2021/01/03 09:30:48;;;;;;;4.60;2.67;;;;;;;2.61;83.02;100622.88;1823418;76;21474;-66
2021/01/03 09:33:25;;;;;;;2.50;2.27;;;;;;;2.59;83.00;100631.30;1826371;77;21770;-60
2021/01/03 09:36:24;;;;;;;5.17;3.20;;;;;;;2.58;83.06;100625.09;1830920;76;21127;-61
2021/01/03 09:39:02;;;;;;;3.33;2.77;;;;;;;2.57;82.88;100625.09;1838198;75;22131;-61
2021/01/03 09:42:21;;;;;;;5.03;3.63;;;;;;;2.55;82.95;100614.45;1836782;77;21201;-61
2021/01/03 09:45:34;;;;;;;4.83;3.20;;;;;;;2.57;83.01;100616.67;1777775;78;21469;-60
2021/01/03 09:48:03;;;;;;;4.73;3.37;;;;;;;2.58;82.82;100615.79;1775591;78;21524;-61
2021/01/03 09:50:47;;;;;;;3.70;3.07;;;;;;;2.56;82.68;100611.36;1802009;77;21456;-62
2021/01/03 09:53:25;;;;;;;6.53;3.70;;;;;;;2.55;82.70;100609.62;1818931;77;22270;-60
2021/01/03 09:56:00;;;;;;;5.80;3.30;;;;;;;2.58;82.65;100606.94;1793038;78;21550;-60
2021/01/03 09:58:42;;;;;;;5.50;3.27;;;;;;;2.58;82.70;100611.80;1785947;78;21155;-59
2021/01/03 10:01:33;;;;;;;8.13;3.97;;;;;;;2.60;82.64;100611.80;1812733;77;21127;-62
2021/01/03 10:04:26;;;;;;;4.97;3.80;;;;;;;2.63;82.59;100599.84;1812669;77;20977;-63
2021/01/03 10:06:58;;;;;;;5.00;3.87;;;;;;;2.66;82.54;100598.48;1780389;78;21174;-61
2021/01/03 10:09:30;;;;;;;4.50;2.70;;;;;;;2.73;82.60;100592.70;1777763;78;21145;-62
2021/01/03 10:11:57;;;;;;;4.70;3.50;;;;;;;2.77;82.22;100595.37;1788892;78;21115;-59
2021/01/03 10:14:34;;;;;;;5.77;3.53;;;;;;;2.80;82.19;100590.49;1785851;78;21410;-59
2021/01/03 10:17:19;;;;;;;8.27;4.30;;;;;;;2.82;82.14;100585.59;1777557;78;21132;-61
2021/01/03 10:19:47;;;;;;;4.53;3.27;;;;;;;2.80;81.96;100587.39;1789138;78;22202;-61
2021/01/03 10:22:31;;;;;;;5.80;3.53;;;;;;;2.81;81.73;100588.24;1812673;77;21186;-61
2021/01/03 10:25:04;;;;;;;5.47;3.85;;;;;;;2.78;81.74;100587.83;1773847;77;21180;-62
2021/01/03 10:27:31;;;;;;;4.40;3.23;;;;;;;2.80;81.68;100574.54;1799288;77;21141;-59
2021/01/03 10:29:58;;;;;;;5.03;3.57;;;;;;;2.80;81.62;100581.19;1801755;77;21219;-60
2021/01/03 10:32:25;;;;;;;5.33;3.30;;;;;;;2.80;81.59;100578.08;1818227;77;21728;-60
2021/01/03 10:34:52;;;;;;;5.23;4.23;;;;;;;2.80;81.57;100567.45;1806425;77;21158;-61
2021/01/03 10:37:19;;;;;;;4.57;3.77;;;;;;;2.80;81.42;100563.46;1804334;77;21181;-60
2021/01/03 10:39:48;;;;;;;4.77;3.43;;;;;;;2.79;81.42;100568.33;1768238;79;21224;-60
2021/01/03 10:42:15;;;;;;;7.10;3.77;;;;;;;2.81;81.26;100562.54;1750402;79;21562;-62
2021/01/03 10:44:42;;;;;;;6.03;3.53;;;;;;;2.81;80.98;100563.88;1736088;80;21212;-59
2021/01/03 10:47:09;;;;;;;4.50;2.57;;;;;;;2.78;81.06;100555.93;1733750;80;21247;-61
2021/01/03 10:49:37;;;;;;;3.37;2.67;;;;;;;2.78;80.96;100558.59;1750540;80;21693;-61
2021/01/03 10:52:07;;;;;;;4.47;3.33;;;;;;;2.78;81.04;100549.72;1731272;80;21221;-60
2021/01/03 10:54:34;;;;;;;6.27;3.87;;;;;;;2.80;81.09;100551.94;1731287;80;21215;-62
2021/01/03 10:57:04;;;;;;;7.57;5.30;;;;;;;2.79;80.98;100556.81;1743644;80;22500;-60
2021/01/03 10:59:31;;;;;;;4.80;2.93;;;;;;;2.78;80.87;100549.72;1726642;80;21653;-60
2021/01/03 11:01:58;;;;;;;7.57;4.07;;;;;;;2.76;80.85;100555.48;1733918;80;21195;-59
2021/01/03 11:04:25;;;;;;;4.80;3.23;;;;;;;2.76;80.72;100551.05;1751773;80;21289;-60
2021/01/03 11:06:55;;;;;;;4.63;3.70;;;;;;;2.74;80.77;100547.51;1729598;81;21187;-61
2021/01/03 11:09:29;;;;;;;4.57;2.40;;;;;;;2.73;80.65;100552.83;1748763;79;21384;-58
2021/01/03 11:12:08;;;;;;;5.60;3.40;;;;;;;2.74;80.75;100546.63;1748971;79;21221;-59
2021/01/03 11:14:37;;;;;;;6.00;3.90;;;;;;;2.76;80.72;100550.17;1773861;80;21151;-59
2021/01/03 11:17:07;;;;;;;6.47;4.80;;;;;;;2.76;80.70;100554.16;1768622;78;21195;-59
2021/01/03 11:19:35;;;;;;;4.60;3.07;;;;;;;2.75;80.71;100542.63;1732963;80;21421;-58
2021/01/03 11:22:04;;;;;;;4.70;2.87;;;;;;;2.74;80.78;100550.17;1760292;80;22326;-59
2021/01/03 11:24:31;;;;;;;2.77;2.07;;;;;;;2.77;80.67;100547.95;1770862;79;21203;-60
2021/01/03 11:27:03;;;;;;;4.30;2.30;;;;;;;2.76;80.41;100543.08;1743917;80;21175;-59
2021/01/03 11:29:32;;;;;;;3.47;2.43;;;;;;;2.74;80.37;100550.17;1744143;80;21657;-60
2021/01/03 11:32:00;;;;;;;3.60;2.80;;;;;;;2.76;80.42;100552.83;1769815;79;21186;-60
2021/01/03 11:34:30;;;;;;;2.70;2.50;;;;;;;2.77;80.45;100546.63;1751519;80;21182;-60
2021/01/03 11:37:07;;;;;;;3.90;2.50;;;;;;;2.75;80.32;100554.59;1720106;79;21289;-59
2021/01/03 11:39:34;;;;;;;2.43;1.90;;;;;;;2.74;80.36;100549.28;1725829;80;21651;-59
2021/01/03 11:42:08;;;;;;;1.70;1.27;;;;;;;2.73;80.32;100549.72;1761943;79;21110;-59
2021/01/03 11:44:36;;;;;;;2.23;1.57;;;;;;;2.73;80.28;100555.05;1749536;79;21237;-61
2021/01/03 11:47:07;;;;;;;2.47;1.80;;;;;;;2.74;80.39;100566.12;1761353;79;21624;-60
2021/01/03 11:49:35;;;;;;;4.23;2.60;;;;;;;2.73;80.35;100557.70;1760442;79;21702;-61
2021/01/03 11:52:06;;;;;;;3.23;1.50;;;;;;;2.73;80.41;100556.38;1756106;79;21178;-58
2021/01/03 11:54:34;;;;;;;1.43;1.27;;;;;;;2.73;80.48;100553.71;1752123;79;21272;-60
2021/01/03 11:57:01;;;;;;;3.43;2.33;;;;;;;2.74;80.49;100548.84;1753129;79;21135;-61
2021/01/03 11:59:28;;;;;;;1.73;1.60;;;;;;;2.77;80.55;100540.86;1746791;80;23532;-58
2021/01/03 12:01:58;;;;;;;1.47;1.20;;;;;;;2.83;80.59;100539.50;1774012;78;21220;-60
2021/01/03 12:04:25;;;;;;;5.30;1.43;;;;;;;2.87;80.52;100527.97;1778292;79;21165;-59
2021/01/03 12:06:57;;;;;;;2.17;1.37;;;;;;;2.93;80.53;100527.93;1735139;80;21253;-60
2021/01/03 12:12:07;;;;;;;2.05;1.85;;;;;;;3.05;80.64;100530.98;1835844;75;28123;-62
2021/01/03 12:14:34;;;;;;;1.60;1.27;;;;;;;3.08;80.61;100520.30;1825241;76;21069;-63